sensor_id;sensor_type;location;lat;lon;timestamp;P1;durP1;ratioP1;P2;durP2;ratioP2
10090;SDS011;5084;51.386;6.778;2023-07-28T00:00:05;2.70;;;2.47;;
10090;SDS011;5084;51.386;6.778;2023-07-28T00:02:31;1.93;;;1.83;;
10090;SDS011;5084;51.386;6.778;2023-07-28T00:04:57;2.30;;;1.70;;
10090;SDS011;5084;51.386;6.778;2023-07-28T00:07:23;2.27;;;2.10;;
10090;SDS011;5084;51.386;6.778;2023-07-28T00:09:49;1.80;;;1.70;;
10090;SDS011;5084;51.386;6.778;2023-07-28T00:12:16;2.13;;;1.93;;
10090;SDS011;5084;51.386;6.778;2023-07-28T00:14:42;2.13;;;1.83;;
10090;SDS011;5084;51.386;6.778;2023-07-28T00:17:08;2.30;;;2.10;;
10090;SDS011;5084;51.386;6.778;2023-07-28T00:19:34;1.93;;;1.83;;
10090;SDS011;5084;51.386;6.778;2023-07-28T00:22:01;2.00;;;1.90;;
10090;SDS011;5084;51.386;6.778;2023-07-28T00:24:27;2.23;;;2.00;;
10090;SDS011;5084;51.386;6.778;2023-07-28T00:26:53;1.97;;;1.87;;
10090;SDS011;5084;51.386;6.778;2023-07-28T00:29:22;2.23;;;2.13;;
10090;SDS011;5084;51.386;6.778;2023-07-28T00:31:48;2.20;;;2.10;;
10090;SDS011;5084;51.386;6.778;2023-07-28T00:34:15;2.77;;;2.40;;
10090;SDS011;5084;51.386;6.778;2023-07-28T00:36:41;2.43;;;2.23;;
10090;SDS011;5084;51.386;6.778;2023-07-28T00:39:10;3.13;;;2.17;;
10090;SDS011;5084;51.386;6.778;2023-07-28T00:41:36;2.47;;;2.10;;
10090;SDS011;5084;51.386;6.778;2023-07-28T00:44:03;2.50;;;2.17;;
10090;SDS011;5084;51.386;6.778;2023-07-28T00:46:29;2.10;;;2.00;;
10090;SDS011;5084;51.386;6.778;2023-07-28T00:48:56;2.40;;;2.20;;
10090;SDS011;5084;51.386;6.778;2023-07-28T00:51:22;2.70;;;2.30;;
10090;SDS011;5084;51.386;6.778;2023-07-28T00:53:48;5.60;;;2.03;;
10090;SDS011;5084;51.386;6.778;2023-07-28T00:56:18;2.57;;;2.37;;
10090;SDS011;5084;51.386;6.778;2023-07-28T00:58:45;2.50;;;2.30;;
10090;SDS011;5084;51.386;6.778;2023-07-28T01:01:11;2.30;;;2.10;;
10090;SDS011;5084;51.386;6.778;2023-07-28T01:03:37;2.57;;;2.37;;
10090;SDS011;5084;51.386;6.778;2023-07-28T01:06:07;2.90;;;2.60;;
10090;SDS011;5084;51.386;6.778;2023-07-28T01:08:41;3.10;;;2.30;;
10090;SDS011;5084;51.386;6.778;2023-07-28T01:11:08;2.90;;;2.20;;
10090;SDS011;5084;51.386;6.778;2023-07-28T01:13:34;2.00;;;1.90;;
10090;SDS011;5084;51.386;6.778;2023-07-28T01:16:00;4.13;;;2.30;;
10090;SDS011;5084;51.386;6.778;2023-07-28T01:18:27;2.17;;;2.03;;
10090;SDS011;5084;51.386;6.778;2023-07-28T01:20:54;3.90;;;2.10;;
10090;SDS011;5084;51.386;6.778;2023-07-28T01:28:31;2.87;;;1.90;;
10090;SDS011;5084;51.386;6.778;2023-07-28T01:30:58;3.50;;;2.33;;
10090;SDS011;5084;51.386;6.778;2023-07-28T01:33:25;2.43;;;2.23;;
10090;SDS011;5084;51.386;6.778;2023-07-28T01:35:51;1.80;;;1.70;;
10090;SDS011;5084;51.386;6.778;2023-07-28T01:38:17;2.13;;;2.03;;
10090;SDS011;5084;51.386;6.778;2023-07-28T01:40:43;3.00;;;2.00;;
10090;SDS011;5084;51.386;6.778;2023-07-28T01:43:09;2.40;;;2.10;;
10090;SDS011;5084;51.386;6.778;2023-07-28T01:45:35;2.13;;;2.00;;
10090;SDS011;5084;51.386;6.778;2023-07-28T01:48:01;2.13;;;1.93;;
10090;SDS011;5084;51.386;6.778;2023-07-28T01:50:27;2.00;;;1.90;;
10090;SDS011;5084;51.386;6.778;2023-07-28T01:52:53;2.33;;;2.13;;
10090;SDS011;5084;51.386;6.778;2023-07-28T01:55:19;3.30;;;2.27;;
10090;SDS011;5084;51.386;6.778;2023-07-28T01:57:53;2.10;;;1.97;;
10090;SDS011;5084;51.386;6.778;2023-07-28T02:00:20;2.30;;;2.10;;
10090;SDS011;5084;51.386;6.778;2023-07-28T02:02:46;2.13;;;1.90;;
10090;SDS011;5084;51.386;6.778;2023-07-28T02:05:12;1.90;;;1.80;;
10090;SDS011;5084;51.386;6.778;2023-07-28T02:07:38;1.87;;;1.77;;
10090;SDS011;5084;51.386;6.778;2023-07-28T02:10:04;2.00;;;1.90;;
10090;SDS011;5084;51.386;6.778;2023-07-28T02:12:31;1.70;;;1.60;;
10090;SDS011;5084;51.386;6.778;2023-07-28T02:14:57;2.40;;;2.20;;
10090;SDS011;5084;51.386;6.778;2023-07-28T02:17:23;2.00;;;1.83;;
10090;SDS011;5084;51.386;6.778;2023-07-28T02:19:49;2.00;;;1.90;;
10090;SDS011;5084;51.386;6.778;2023-07-28T02:22:15;2.07;;;1.97;;
10090;SDS011;5084;51.386;6.778;2023-07-28T02:24:41;1.80;;;1.70;;
10090;SDS011;5084;51.386;6.778;2023-07-28T02:27:07;3.60;;;2.17;;
10090;SDS011;5084;51.386;6.778;2023-07-28T02:29:33;2.90;;;2.23;;
10090;SDS011;5084;51.386;6.778;2023-07-28T02:31:59;2.63;;;1.70;;
10090;SDS011;5084;51.386;6.778;2023-07-28T02:34:25;2.00;;;1.60;;
10090;SDS011;5084;51.386;6.778;2023-07-28T02:36:51;2.33;;;2.13;;
10090;SDS011;5084;51.386;6.778;2023-07-28T02:39:17;1.50;;;1.40;;
10090;SDS011;5084;51.386;6.778;2023-07-28T02:41:44;1.90;;;1.80;;
10090;SDS011;5084;51.386;6.778;2023-07-28T02:44:10;1.83;;;1.73;;
10090;SDS011;5084;51.386;6.778;2023-07-28T02:46:36;2.10;;;2.00;;
10090;SDS011;5084;51.386;6.778;2023-07-28T02:49:02;1.80;;;1.70;;
10090;SDS011;5084;51.386;6.778;2023-07-28T02:51:29;1.73;;;1.63;;
10090;SDS011;5084;51.386;6.778;2023-07-28T02:53:55;1.77;;;1.67;;
10090;SDS011;5084;51.386;6.778;2023-07-28T02:56:21;1.70;;;1.60;;
10090;SDS011;5084;51.386;6.778;2023-07-28T02:58:48;1.80;;;1.70;;
10090;SDS011;5084;51.386;6.778;2023-07-28T03:01:14;2.03;;;1.93;;
10090;SDS011;5084;51.386;6.778;2023-07-28T03:03:40;2.03;;;1.93;;
10090;SDS011;5084;51.386;6.778;2023-07-28T03:06:06;3.90;;;1.67;;
10090;SDS011;5084;51.386;6.778;2023-07-28T03:08:32;1.90;;;1.80;;
10090;SDS011;5084;51.386;6.778;2023-07-28T03:10:58;1.80;;;1.70;;
10090;SDS011;5084;51.386;6.778;2023-07-28T03:13:27;1.80;;;1.70;;
10090;SDS011;5084;51.386;6.778;2023-07-28T03:15:53;2.03;;;1.93;;
10090;SDS011;5084;51.386;6.778;2023-07-28T03:18:19;2.03;;;1.93;;
10090;SDS011;5084;51.386;6.778;2023-07-28T03:20:45;1.70;;;1.60;;
10090;SDS011;5084;51.386;6.778;2023-07-28T03:23:12;2.00;;;1.87;;
10090;SDS011;5084;51.386;6.778;2023-07-28T03:25:38;1.70;;;1.60;;
10090;SDS011;5084;51.386;6.778;2023-07-28T03:28:04;1.90;;;1.80;;
10090;SDS011;5084;51.386;6.778;2023-07-28T03:30:30;1.97;;;1.87;;
10090;SDS011;5084;51.386;6.778;2023-07-28T03:32:56;1.70;;;1.60;;
10090;SDS011;5084;51.386;6.778;2023-07-28T03:35:22;1.93;;;1.83;;
10090;SDS011;5084;51.386;6.778;2023-07-28T03:37:48;1.77;;;1.67;;
10090;SDS011;5084;51.386;6.778;2023-07-28T03:40:14;1.93;;;1.83;;
10090;SDS011;5084;51.386;6.778;2023-07-28T03:42:40;2.83;;;1.77;;
10090;SDS011;5084;51.386;6.778;2023-07-28T03:45:06;2.40;;;1.60;;
10090;SDS011;5084;51.386;6.778;2023-07-28T03:47:33;1.93;;;1.83;;
10090;SDS011;5084;51.386;6.778;2023-07-28T03:49:59;1.70;;;1.60;;
10090;SDS011;5084;51.386;6.778;2023-07-28T03:52:25;1.60;;;1.50;;
10090;SDS011;5084;51.386;6.778;2023-07-28T03:54:51;2.20;;;1.80;;
10090;SDS011;5084;51.386;6.778;2023-07-28T03:57:17;1.80;;;1.70;;
10090;SDS011;5084;51.386;6.778;2023-07-28T03:59:43;1.60;;;1.50;;
10090;SDS011;5084;51.386;6.778;2023-07-28T04:02:09;1.93;;;1.83;;
10090;SDS011;5084;51.386;6.778;2023-07-28T04:04:35;1.80;;;1.70;;
10090;SDS011;5084;51.386;6.778;2023-07-28T04:07:01;1.80;;;1.70;;
10090;SDS011;5084;51.386;6.778;2023-07-28T04:09:27;1.60;;;1.50;;
10090;SDS011;5084;51.386;6.778;2023-07-28T04:11:54;2.10;;;1.90;;
10090;SDS011;5084;51.386;6.778;2023-07-28T04:14:20;1.83;;;1.73;;
10090;SDS011;5084;51.386;6.778;2023-07-28T04:16:46;2.70;;;1.67;;
10090;SDS011;5084;51.386;6.778;2023-07-28T04:19:12;1.70;;;1.60;;
10090;SDS011;5084;51.386;6.778;2023-07-28T04:21:38;1.77;;;1.67;;
10090;SDS011;5084;51.386;6.778;2023-07-28T04:24:07;1.60;;;1.50;;
10090;SDS011;5084;51.386;6.778;2023-07-28T04:26:33;2.33;;;1.80;;
10090;SDS011;5084;51.386;6.778;2023-07-28T04:28:59;3.27;;;1.80;;
10090;SDS011;5084;51.386;6.778;2023-07-28T04:31:25;1.90;;;1.80;;
10090;SDS011;5084;51.386;6.778;2023-07-28T04:33:51;1.70;;;1.60;;
10090;SDS011;5084;51.386;6.778;2023-07-28T04:36:17;1.70;;;1.60;;
10090;SDS011;5084;51.386;6.778;2023-07-28T04:38:43;1.77;;;1.67;;
10090;SDS011;5084;51.386;6.778;2023-07-28T04:41:09;1.60;;;1.50;;
10090;SDS011;5084;51.386;6.778;2023-07-28T04:43:35;1.70;;;1.60;;
10090;SDS011;5084;51.386;6.778;2023-07-28T04:46:02;1.60;;;1.50;;
10090;SDS011;5084;51.386;6.778;2023-07-28T04:48:28;1.90;;;1.60;;
10090;SDS011;5084;51.386;6.778;2023-07-28T04:50:53;1.70;;;1.60;;
10090;SDS011;5084;51.386;6.778;2023-07-28T04:53:20;1.77;;;1.67;;
10090;SDS011;5084;51.386;6.778;2023-07-28T04:55:46;1.57;;;1.47;;
10090;SDS011;5084;51.386;6.778;2023-07-28T04:58:12;1.93;;;1.83;;
10090;SDS011;5084;51.386;6.778;2023-07-28T05:00:38;1.63;;;1.53;;
10090;SDS011;5084;51.386;6.778;2023-07-28T05:03:04;1.57;;;1.47;;
10090;SDS011;5084;51.386;6.778;2023-07-28T05:05:30;1.57;;;1.47;;
10090;SDS011;5084;51.386;6.778;2023-07-28T05:07:56;1.97;;;1.87;;
10090;SDS011;5084;51.386;6.778;2023-07-28T05:10:22;2.50;;;1.20;;
10090;SDS011;5084;51.386;6.778;2023-07-28T05:12:48;1.73;;;1.63;;
10090;SDS011;5084;51.386;6.778;2023-07-28T05:15:14;1.30;;;1.30;;
10090;SDS011;5084;51.386;6.778;2023-07-28T05:17:41;1.60;;;1.50;;
10090;SDS011;5084;51.386;6.778;2023-07-28T05:20:07;1.57;;;1.47;;
10090;SDS011;5084;51.386;6.778;2023-07-28T05:22:33;1.57;;;1.47;;
10090;SDS011;5084;51.386;6.778;2023-07-28T05:24:59;1.67;;;1.57;;
10090;SDS011;5084;51.386;6.778;2023-07-28T05:27:26;1.60;;;1.50;;
10090;SDS011;5084;51.386;6.778;2023-07-28T05:29:52;1.53;;;1.43;;
10090;SDS011;5084;51.386;6.778;2023-07-28T05:32:18;1.73;;;1.63;;
10090;SDS011;5084;51.386;6.778;2023-07-28T05:34:44;1.47;;;1.37;;
10090;SDS011;5084;51.386;6.778;2023-07-28T05:37:10;1.70;;;1.60;;
10090;SDS011;5084;51.386;6.778;2023-07-28T05:39:36;1.63;;;1.50;;
10090;SDS011;5084;51.386;6.778;2023-07-28T05:42:02;1.70;;;1.60;;
10090;SDS011;5084;51.386;6.778;2023-07-28T05:44:28;2.00;;;1.77;;
10090;SDS011;5084;51.386;6.778;2023-07-28T05:46:54;1.60;;;1.50;;
10090;SDS011;5084;51.386;6.778;2023-07-28T05:49:20;1.90;;;1.60;;
10090;SDS011;5084;51.386;6.778;2023-07-28T05:51:47;2.00;;;1.90;;
10090;SDS011;5084;51.386;6.778;2023-07-28T05:54:13;1.80;;;1.70;;
10090;SDS011;5084;51.386;6.778;2023-07-28T05:56:42;1.60;;;1.50;;
10090;SDS011;5084;51.386;6.778;2023-07-28T05:59:08;1.60;;;1.50;;
10090;SDS011;5084;51.386;6.778;2023-07-28T06:01:34;1.33;;;1.20;;
10090;SDS011;5084;51.386;6.778;2023-07-28T06:04:00;1.77;;;1.67;;
10090;SDS011;5084;51.386;6.778;2023-07-28T06:06:26;2.50;;;2.30;;
10090;SDS011;5084;51.386;6.778;2023-07-28T06:08:53;1.90;;;1.80;;
10090;SDS011;5084;51.386;6.778;2023-07-28T06:11:19;2.07;;;1.97;;
10090;SDS011;5084;51.386;6.778;2023-07-28T06:13:46;2.00;;;1.90;;
10090;SDS011;5084;51.386;6.778;2023-07-28T06:16:12;2.07;;;1.97;;
10090;SDS011;5084;51.386;6.778;2023-07-28T06:18:39;1.70;;;1.60;;
10090;SDS011;5084;51.386;6.778;2023-07-28T06:21:05;2.00;;;1.90;;
10090;SDS011;5084;51.386;6.778;2023-07-28T06:23:31;2.63;;;2.33;;
10090;SDS011;5084;51.386;6.778;2023-07-28T06:25:57;2.13;;;1.93;;
10090;SDS011;5084;51.386;6.778;2023-07-28T06:28:23;2.03;;;1.90;;
10090;SDS011;5084;51.386;6.778;2023-07-28T06:30:56;2.10;;;1.90;;
10090;SDS011;5084;51.386;6.778;2023-07-28T06:33:22;2.17;;;2.03;;
10090;SDS011;5084;51.386;6.778;2023-07-28T06:35:48;2.70;;;2.50;;
10090;SDS011;5084;51.386;6.778;2023-07-28T06:38:14;2.63;;;2.43;;
10090;SDS011;5084;51.386;6.778;2023-07-28T06:40:40;2.77;;;2.43;;
10090;SDS011;5084;51.386;6.778;2023-07-28T06:43:06;3.13;;;2.50;;
10090;SDS011;5084;51.386;6.778;2023-07-28T06:45:32;2.90;;;2.70;;
10090;SDS011;5084;51.386;6.778;2023-07-28T06:47:58;3.50;;;3.20;;
10090;SDS011;5084;51.386;6.778;2023-07-28T06:50:24;3.27;;;2.97;;
10090;SDS011;5084;51.386;6.778;2023-07-28T06:52:50;3.07;;;2.87;;
10090;SDS011;5084;51.386;6.778;2023-07-28T06:55:17;4.37;;;2.77;;
10090;SDS011;5084;51.386;6.778;2023-07-28T06:57:44;3.37;;;3.07;;
10090;SDS011;5084;51.386;6.778;2023-07-28T07:00:10;4.27;;;3.53;;
10090;SDS011;5084;51.386;6.778;2023-07-28T07:02:36;3.83;;;3.53;;
10090;SDS011;5084;51.386;6.778;2023-07-28T07:05:02;3.67;;;3.00;;
10090;SDS011;5084;51.386;6.778;2023-07-28T07:07:29;3.77;;;3.47;;
10090;SDS011;5084;51.386;6.778;2023-07-28T07:09:55;8.13;;;3.33;;
10090;SDS011;5084;51.386;6.778;2023-07-28T07:12:21;3.80;;;3.50;;
10090;SDS011;5084;51.386;6.778;2023-07-28T07:14:47;4.10;;;3.10;;
10090;SDS011;5084;51.386;6.778;2023-07-28T07:17:13;4.13;;;3.73;;
10090;SDS011;5084;51.386;6.778;2023-07-28T07:19:39;3.60;;;3.30;;
10090;SDS011;5084;51.386;6.778;2023-07-28T07:22:05;3.57;;;3.27;;
10090;SDS011;5084;51.386;6.778;2023-07-28T07:24:32;4.57;;;4.13;;
10090;SDS011;5084;51.386;6.778;2023-07-28T07:26:58;4.17;;;3.77;;
10090;SDS011;5084;51.386;6.778;2023-07-28T07:29:24;6.07;;;3.93;;
10090;SDS011;5084;51.386;6.778;2023-07-28T07:31:50;4.23;;;3.43;;
10090;SDS011;5084;51.386;6.778;2023-07-28T07:34:19;3.30;;;3.00;;
10090;SDS011;5084;51.386;6.778;2023-07-28T07:36:46;3.90;;;3.60;;
10090;SDS011;5084;51.386;6.778;2023-07-28T07:39:12;3.40;;;3.20;;
10090;SDS011;5084;51.386;6.778;2023-07-28T07:41:38;3.50;;;3.20;;
10090;SDS011;5084;51.386;6.778;2023-07-28T07:44:05;3.60;;;3.30;;
10090;SDS011;5084;51.386;6.778;2023-07-28T07:46:31;3.70;;;3.40;;
10090;SDS011;5084;51.386;6.778;2023-07-28T07:48:57;4.03;;;3.73;;
10090;SDS011;5084;51.386;6.778;2023-07-28T07:51:23;3.10;;;2.90;;
10090;SDS011;5084;51.386;6.778;2023-07-28T07:53:50;3.47;;;3.17;;
10090;SDS011;5084;51.386;6.778;2023-07-28T07:56:16;3.70;;;3.40;;
10090;SDS011;5084;51.386;6.778;2023-07-28T07:58:43;4.77;;;2.67;;
10090;SDS011;5084;51.386;6.778;2023-07-28T08:01:09;3.33;;;3.03;;
10090;SDS011;5084;51.386;6.778;2023-07-28T08:03:35;3.93;;;3.23;;
10090;SDS011;5084;51.386;6.778;2023-07-28T08:06:01;3.20;;;2.90;;
10090;SDS011;5084;51.386;6.778;2023-07-28T08:08:27;3.70;;;3.40;;
10090;SDS011;5084;51.386;6.778;2023-07-28T08:10:53;3.40;;;3.10;;
10090;SDS011;5084;51.386;6.778;2023-07-28T08:13:19;3.60;;;3.30;;
10090;SDS011;5084;51.386;6.778;2023-07-28T08:15:46;3.03;;;2.70;;
10090;SDS011;5084;51.386;6.778;2023-07-28T08:18:13;3.40;;;3.10;;
10090;SDS011;5084;51.386;6.778;2023-07-28T08:20:39;3.13;;;2.83;;
10090;SDS011;5084;51.386;6.778;2023-07-28T08:23:05;2.77;;;2.57;;
10090;SDS011;5084;51.386;6.778;2023-07-28T08:25:31;3.57;;;3.30;;
10090;SDS011;5084;51.386;6.778;2023-07-28T08:27:59;3.50;;;3.20;;
10090;SDS011;5084;51.386;6.778;2023-07-28T08:30:25;3.00;;;2.80;;
10090;SDS011;5084;51.386;6.778;2023-07-28T08:32:51;3.30;;;3.07;;
10090;SDS011;5084;51.386;6.778;2023-07-28T08:35:17;2.50;;;2.30;;
10090;SDS011;5084;51.386;6.778;2023-07-28T08:37:43;3.00;;;2.80;;
10090;SDS011;5084;51.386;6.778;2023-07-28T08:40:09;2.67;;;2.47;;
10090;SDS011;5084;51.386;6.778;2023-07-28T08:42:37;2.50;;;2.30;;
10090;SDS011;5084;51.386;6.778;2023-07-28T08:45:04;2.97;;;2.73;;
10090;SDS011;5084;51.386;6.778;2023-07-28T08:47:31;2.67;;;2.47;;
10090;SDS011;5084;51.386;6.778;2023-07-28T08:49:57;2.70;;;2.50;;
10090;SDS011;5084;51.386;6.778;2023-07-28T08:52:23;2.60;;;2.40;;
10090;SDS011;5084;51.386;6.778;2023-07-28T08:54:50;2.53;;;2.37;;
10090;SDS011;5084;51.386;6.778;2023-07-28T08:57:16;2.57;;;2.37;;
10090;SDS011;5084;51.386;6.778;2023-07-28T08:59:44;2.57;;;2.37;;
10090;SDS011;5084;51.386;6.778;2023-07-28T09:02:14;3.90;;;2.53;;
10090;SDS011;5084;51.386;6.778;2023-07-28T09:04:41;2.67;;;2.43;;
10090;SDS011;5084;51.386;6.778;2023-07-28T09:07:07;2.80;;;2.60;;
10090;SDS011;5084;51.386;6.778;2023-07-28T09:09:34;2.40;;;2.20;;
10090;SDS011;5084;51.386;6.778;2023-07-28T09:12:02;3.07;;;2.77;;
10090;SDS011;5084;51.386;6.778;2023-07-28T09:14:28;3.13;;;2.43;;
10090;SDS011;5084;51.386;6.778;2023-07-28T09:16:55;3.57;;;2.67;;
10090;SDS011;5084;51.386;6.778;2023-07-28T09:19:22;2.80;;;2.60;;
10090;SDS011;5084;51.386;6.778;2023-07-28T09:21:58;2.30;;;2.20;;
10090;SDS011;5084;51.386;6.778;2023-07-28T09:24:30;2.83;;;2.63;;
10090;SDS011;5084;51.386;6.778;2023-07-28T09:26:57;2.57;;;2.37;;
10090;SDS011;5084;51.386;6.778;2023-07-28T09:29:23;3.63;;;2.70;;
10090;SDS011;5084;51.386;6.778;2023-07-28T09:31:49;2.70;;;2.50;;
10090;SDS011;5084;51.386;6.778;2023-07-28T09:34:25;2.70;;;2.50;;
10090;SDS011;5084;51.386;6.778;2023-07-28T09:36:55;2.87;;;2.67;;
10090;SDS011;5084;51.386;6.778;2023-07-28T09:39:22;2.90;;;2.53;;
10090;SDS011;5084;51.386;6.778;2023-07-28T09:41:49;3.17;;;2.97;;
10090;SDS011;5084;51.386;6.778;2023-07-28T09:44:15;2.87;;;2.67;;
10090;SDS011;5084;51.386;6.778;2023-07-28T09:46:49;2.67;;;2.37;;
10090;SDS011;5084;51.386;6.778;2023-07-28T09:49:19;2.90;;;2.70;;
10090;SDS011;5084;51.386;6.778;2023-07-28T09:51:46;2.70;;;2.50;;
10090;SDS011;5084;51.386;6.778;2023-07-28T09:54:23;2.97;;;2.77;;
10090;SDS011;5084;51.386;6.778;2023-07-28T09:56:53;2.97;;;2.77;;
10090;SDS011;5084;51.386;6.778;2023-07-28T09:59:22;3.37;;;2.90;;
10090;SDS011;5084;51.386;6.778;2023-07-28T10:01:50;2.90;;;2.53;;
10090;SDS011;5084;51.386;6.778;2023-07-28T10:04:17;3.00;;;2.80;;
10090;SDS011;5084;51.386;6.778;2023-07-28T10:06:43;2.90;;;2.70;;
10090;SDS011;5084;51.386;6.778;2023-07-28T10:09:09;3.00;;;2.57;;
10090;SDS011;5084;51.386;6.778;2023-07-28T10:11:36;3.30;;;3.00;;
10090;SDS011;5084;51.386;6.778;2023-07-28T10:14:04;2.87;;;2.67;;
10090;SDS011;5084;51.386;6.778;2023-07-28T10:16:38;3.67;;;2.40;;
10090;SDS011;5084;51.386;6.778;2023-07-28T10:19:04;2.60;;;2.40;;
10090;SDS011;5084;51.386;6.778;2023-07-28T10:21:31;3.47;;;2.60;;
10090;SDS011;5084;51.386;6.778;2023-07-28T10:23:57;2.77;;;2.57;;
10090;SDS011;5084;51.386;6.778;2023-07-28T10:29:09;3.47;;;2.70;;
10090;SDS011;5084;51.386;6.778;2023-07-28T10:31:35;3.60;;;2.50;;
10090;SDS011;5084;51.386;6.778;2023-07-28T10:34:02;2.70;;;2.50;;
10090;SDS011;5084;51.386;6.778;2023-07-28T10:41:40;2.67;;;2.47;;
10090;SDS011;5084;51.386;6.778;2023-07-28T10:44:07;2.80;;;2.60;;
10090;SDS011;5084;51.386;6.778;2023-07-28T10:46:34;2.93;;;2.70;;
10090;SDS011;5084;51.386;6.778;2023-07-28T10:49:04;3.93;;;3.03;;
10090;SDS011;5084;51.386;6.778;2023-07-28T10:51:31;2.93;;;2.73;;
10090;SDS011;5084;51.386;6.778;2023-07-28T10:53:58;3.73;;;2.93;;
10090;SDS011;5084;51.386;6.778;2023-07-28T10:56:25;2.97;;;2.77;;
10090;SDS011;5084;51.386;6.778;2023-07-28T10:58:58;3.40;;;3.13;;
10090;SDS011;5084;51.386;6.778;2023-07-28T11:01:30;4.63;;;3.10;;
10090;SDS011;5084;51.386;6.778;2023-07-28T11:04:05;3.00;;;2.80;;
10090;SDS011;5084;51.386;6.778;2023-07-28T11:06:31;3.20;;;3.00;;
10090;SDS011;5084;51.386;6.778;2023-07-28T11:08:57;3.30;;;3.00;;
10090;SDS011;5084;51.386;6.778;2023-07-28T11:11:23;3.50;;;3.20;;
10090;SDS011;5084;51.386;6.778;2023-07-28T11:13:50;3.17;;;2.87;;
10090;SDS011;5084;51.386;6.778;2023-07-28T11:16:16;2.90;;;2.70;;
10090;SDS011;5084;51.386;6.778;2023-07-28T11:18:42;2.80;;;2.60;;
10090;SDS011;5084;51.386;6.778;2023-07-28T11:21:08;3.40;;;3.10;;
10090;SDS011;5084;51.386;6.778;2023-07-28T11:23:34;3.17;;;2.97;;
10090;SDS011;5084;51.386;6.778;2023-07-28T11:26:00;2.60;;;2.40;;
10090;SDS011;5084;51.386;6.778;2023-07-28T11:28:26;2.90;;;2.70;;
10090;SDS011;5084;51.386;6.778;2023-07-28T11:30:53;2.87;;;2.67;;
10090;SDS011;5084;51.386;6.778;2023-07-28T11:33:19;2.80;;;2.60;;
10090;SDS011;5084;51.386;6.778;2023-07-28T11:35:45;2.63;;;2.47;;
10090;SDS011;5084;51.386;6.778;2023-07-28T11:38:12;2.70;;;2.50;;
10090;SDS011;5084;51.386;6.778;2023-07-28T11:40:38;3.23;;;3.00;;
10090;SDS011;5084;51.386;6.778;2023-07-28T11:43:05;3.20;;;2.90;;
10090;SDS011;5084;51.386;6.778;2023-07-28T11:45:31;2.83;;;2.63;;
10090;SDS011;5084;51.386;6.778;2023-07-28T11:48:02;2.60;;;2.40;;
10090;SDS011;5084;51.386;6.778;2023-07-28T11:50:29;3.80;;;2.37;;
10090;SDS011;5084;51.386;6.778;2023-07-28T11:52:56;2.67;;;2.47;;
10090;SDS011;5084;51.386;6.778;2023-07-28T11:55:23;3.00;;;2.70;;
10090;SDS011;5084;51.386;6.778;2023-07-28T11:57:49;2.57;;;2.37;;
10090;SDS011;5084;51.386;6.778;2023-07-28T12:00:16;2.97;;;2.70;;
10090;SDS011;5084;51.386;6.778;2023-07-28T12:02:42;2.70;;;2.50;;
10090;SDS011;5084;51.386;6.778;2023-07-28T12:05:12;2.83;;;2.17;;
10090;SDS011;5084;51.386;6.778;2023-07-28T12:07:38;2.87;;;2.37;;
10090;SDS011;5084;51.386;6.778;2023-07-28T12:10:04;2.30;;;2.10;;
10090;SDS011;5084;51.386;6.778;2023-07-28T12:12:44;2.20;;;2.10;;
10090;SDS011;5084;51.386;6.778;2023-07-28T12:15:29;1.90;;;1.80;;
10090;SDS011;5084;51.386;6.778;2023-07-28T12:18:12;2.40;;;2.20;;
10090;SDS011;5084;51.386;6.778;2023-07-28T12:23:11;2.97;;;2.77;;
10090;SDS011;5084;51.386;6.778;2023-07-28T12:25:38;2.23;;;2.03;;
10090;SDS011;5084;51.386;6.778;2023-07-28T12:28:04;2.53;;;1.90;;
10090;SDS011;5084;51.386;6.778;2023-07-28T12:30:31;2.70;;;2.50;;
10090;SDS011;5084;51.386;6.778;2023-07-28T12:32:57;2.50;;;2.30;;
10090;SDS011;5084;51.386;6.778;2023-07-28T12:35:24;2.27;;;2.07;;
10090;SDS011;5084;51.386;6.778;2023-07-28T12:37:53;2.60;;;2.03;;
10090;SDS011;5084;51.386;6.778;2023-07-28T12:40:19;2.53;;;2.00;;
10090;SDS011;5084;51.386;6.778;2023-07-28T12:42:45;2.10;;;1.90;;
10090;SDS011;5084;51.386;6.778;2023-07-28T12:45:13;1.67;;;1.57;;
10090;SDS011;5084;51.386;6.778;2023-07-28T12:47:40;2.03;;;1.87;;
10090;SDS011;5084;51.386;6.778;2023-07-28T12:50:06;2.07;;;1.90;;
10090;SDS011;5084;51.386;6.778;2023-07-28T12:52:33;2.30;;;2.10;;
10090;SDS011;5084;51.386;6.778;2023-07-28T12:54:59;2.20;;;2.00;;
10090;SDS011;5084;51.386;6.778;2023-07-28T12:57:25;2.10;;;2.00;;
10090;SDS011;5084;51.386;6.778;2023-07-28T12:59:51;3.17;;;2.10;;
10090;SDS011;5084;51.386;6.778;2023-07-28T13:02:17;2.20;;;2.00;;
10090;SDS011;5084;51.386;6.778;2023-07-28T13:04:43;1.70;;;1.60;;
10090;SDS011;5084;51.386;6.778;2023-07-28T13:07:09;2.33;;;1.80;;
10090;SDS011;5084;51.386;6.778;2023-07-28T13:09:35;2.10;;;1.57;;
10090;SDS011;5084;51.386;6.778;2023-07-28T13:12:01;3.77;;;1.90;;
10090;SDS011;5084;51.386;6.778;2023-07-28T13:14:28;1.87;;;1.57;;
10090;SDS011;5084;51.386;6.778;2023-07-28T13:16:54;1.87;;;1.70;;
10090;SDS011;5084;51.386;6.778;2023-07-28T13:19:20;1.77;;;1.67;;
10090;SDS011;5084;51.386;6.778;2023-07-28T13:21:46;1.70;;;1.60;;
10090;SDS011;5084;51.386;6.778;2023-07-28T13:24:12;1.90;;;1.80;;
10090;SDS011;5084;51.386;6.778;2023-07-28T13:26:38;2.00;;;1.90;;
10090;SDS011;5084;51.386;6.778;2023-07-28T13:29:04;1.53;;;1.43;;
10090;SDS011;5084;51.386;6.778;2023-07-28T13:31:32;1.77;;;1.67;;
10090;SDS011;5084;51.386;6.778;2023-07-28T13:33:58;2.63;;;1.70;;
10090;SDS011;5084;51.386;6.778;2023-07-28T13:36:24;2.20;;;2.00;;
10090;SDS011;5084;51.386;6.778;2023-07-28T13:38:50;1.93;;;1.80;;
10090;SDS011;5084;51.386;6.778;2023-07-28T13:41:16;2.07;;;1.90;;
10090;SDS011;5084;51.386;6.778;2023-07-28T13:43:42;1.60;;;1.50;;
10090;SDS011;5084;51.386;6.778;2023-07-28T13:46:08;2.00;;;1.90;;
10090;SDS011;5084;51.386;6.778;2023-07-28T13:48:34;1.70;;;1.60;;
10090;SDS011;5084;51.386;6.778;2023-07-28T13:51:01;1.70;;;1.60;;
10090;SDS011;5084;51.386;6.778;2023-07-28T13:53:27;1.70;;;1.60;;
10090;SDS011;5084;51.386;6.778;2023-07-28T13:55:54;1.70;;;1.60;;
10090;SDS011;5084;51.386;6.778;2023-07-28T13:58:20;2.03;;;1.93;;
10090;SDS011;5084;51.386;6.778;2023-07-28T14:00:46;1.77;;;1.67;;
10090;SDS011;5084;51.386;6.778;2023-07-28T14:03:12;1.77;;;1.67;;
10090;SDS011;5084;51.386;6.778;2023-07-28T14:05:40;2.70;;;1.70;;
10090;SDS011;5084;51.386;6.778;2023-07-28T14:08:06;1.73;;;1.63;;
10090;SDS011;5084;51.386;6.778;2023-07-28T14:10:32;1.73;;;1.63;;
10090;SDS011;5084;51.386;6.778;2023-07-28T14:12:59;1.77;;;1.63;;
10090;SDS011;5084;51.386;6.778;2023-07-28T14:15:25;1.70;;;1.60;;
10090;SDS011;5084;51.386;6.778;2023-07-28T14:17:51;1.93;;;1.83;;
10090;SDS011;5084;51.386;6.778;2023-07-28T14:20:17;1.80;;;1.70;;
10090;SDS011;5084;51.386;6.778;2023-07-28T14:22:43;1.80;;;1.70;;
10090;SDS011;5084;51.386;6.778;2023-07-28T14:25:09;1.80;;;1.70;;
10090;SDS011;5084;51.386;6.778;2023-07-28T14:27:35;1.90;;;1.80;;
10090;SDS011;5084;51.386;6.778;2023-07-28T14:30:01;1.70;;;1.60;;
10090;SDS011;5084;51.386;6.778;2023-07-28T14:32:27;2.13;;;2.03;;
10090;SDS011;5084;51.386;6.778;2023-07-28T14:34:53;1.53;;;1.43;;
10090;SDS011;5084;51.386;6.778;2023-07-28T14:37:20;1.70;;;1.60;;
10090;SDS011;5084;51.386;6.778;2023-07-28T14:39:47;2.00;;;1.80;;
10090;SDS011;5084;51.386;6.778;2023-07-28T14:42:13;1.53;;;1.43;;
10090;SDS011;5084;51.386;6.778;2023-07-28T14:44:39;1.50;;;1.40;;
10090;SDS011;5084;51.386;6.778;2023-07-28T14:47:05;1.70;;;1.60;;
10090;SDS011;5084;51.386;6.778;2023-07-28T14:49:31;1.80;;;1.70;;
10090;SDS011;5084;51.386;6.778;2023-07-28T14:51:57;2.93;;;1.63;;
10090;SDS011;5084;51.386;6.778;2023-07-28T14:54:23;1.67;;;1.57;;
10090;SDS011;5084;51.386;6.778;2023-07-28T14:56:49;1.93;;;1.50;;
10090;SDS011;5084;51.386;6.778;2023-07-28T14:59:15;1.50;;;1.40;;
10090;SDS011;5084;51.386;6.778;2023-07-28T15:01:41;1.73;;;1.63;;
10090;SDS011;5084;51.386;6.778;2023-07-28T15:04:07;1.60;;;1.50;;
10090;SDS011;5084;51.386;6.778;2023-07-28T15:06:33;1.67;;;1.57;;
10090;SDS011;5084;51.386;6.778;2023-07-28T15:08:59;1.60;;;1.50;;
10090;SDS011;5084;51.386;6.778;2023-07-28T15:11:25;1.50;;;1.40;;